sensor_id;sensor_type;location;lat;lon;timestamp;P1;durP1;ratioP1;P2;durP2;ratioP2
55065;SDS011;40964;42.114;24.220;2022-10-16T00:02:23;8.43;;;4.13;;
55065;SDS011;40964;42.114;24.220;2022-10-16T00:04:49;8.68;;;4.53;;
55065;SDS011;40964;42.114;24.220;2022-10-16T00:07:15;7.55;;;4.75;;
55065;SDS011;40964;42.114;24.220;2022-10-16T00:09:40;8.93;;;5.15;;
55065;SDS011;40964;42.114;24.220;2022-10-16T00:12:06;8.50;;;4.40;;
55065;SDS011;40964;42.114;24.220;2022-10-16T00:14:32;6.50;;;4.70;;
55065;SDS011;40964;42.114;24.220;2022-10-16T00:16:57;11.02;;;4.90;;
55065;SDS011;40964;42.114;24.220;2022-10-16T00:19:23;6.10;;;4.45;;
55065;SDS011;40964;42.114;24.220;2022-10-16T00:21:48;7.68;;;4.63;;
55065;SDS011;40964;42.114;24.220;2022-10-16T00:24:14;11.45;;;5.10;;
55065;SDS011;40964;42.114;24.220;2022-10-16T00:26:39;7.47;;;4.03;;
55065;SDS011;40964;42.114;24.220;2022-10-16T00:29:05;8.23;;;4.40;;
55065;SDS011;40964;42.114;24.220;2022-10-16T00:31:31;11.38;;;5.45;;
55065;SDS011;40964;42.114;24.220;2022-10-16T00:33:57;5.63;;;3.97;;
55065;SDS011;40964;42.114;24.220;2022-10-16T00:36:23;7.20;;;4.57;;
55065;SDS011;40964;42.114;24.220;2022-10-16T00:38:51;7.55;;;4.70;;
55065;SDS011;40964;42.114;24.220;2022-10-16T00:41:21;6.88;;;4.78;;
55065;SDS011;40964;42.114;24.220;2022-10-16T00:43:50;7.03;;;4.15;;
55065;SDS011;40964;42.114;24.220;2022-10-16T00:46:32;9.23;;;4.97;;
55065;SDS011;40964;42.114;24.220;2022-10-16T00:51:46;8.25;;;4.70;;
55065;SDS011;40964;42.114;24.220;2022-10-16T00:56:45;7.90;;;4.50;;
55065;SDS011;40964;42.114;24.220;2022-10-16T00:59:33;7.68;;;4.35;;
55065;SDS011;40964;42.114;24.220;2022-10-16T01:01:59;7.93;;;4.50;;
55065;SDS011;40964;42.114;24.220;2022-10-16T01:04:26;6.60;;;3.83;;
55065;SDS011;40964;42.114;24.220;2022-10-16T01:09:34;7.93;;;4.47;;
55065;SDS011;40964;42.114;24.220;2022-10-16T01:12:12;6.20;;;4.10;;
55065;SDS011;40964;42.114;24.220;2022-10-16T01:17:14;7.38;;;4.75;;
55065;SDS011;40964;42.114;24.220;2022-10-16T01:20:07;8.90;;;4.22;;
55065;SDS011;40964;42.114;24.220;2022-10-16T01:28:32;9.48;;;4.78;;
55065;SDS011;40964;42.114;24.220;2022-10-16T01:31:11;8.32;;;4.50;;
55065;SDS011;40964;42.114;24.220;2022-10-16T01:33:47;6.97;;;4.43;;
55065;SDS011;40964;42.114;24.220;2022-10-16T01:36:21;7.30;;;4.53;;
55065;SDS011;40964;42.114;24.220;2022-10-16T01:38:51;6.80;;;4.75;;
55065;SDS011;40964;42.114;24.220;2022-10-16T01:41:21;8.23;;;4.30;;
55065;SDS011;40964;42.114;24.220;2022-10-16T01:43:53;7.75;;;4.47;;
55065;SDS011;40964;42.114;24.220;2022-10-16T01:46:26;7.35;;;4.45;;
55065;SDS011;40964;42.114;24.220;2022-10-16T01:48:53;7.22;;;4.43;;
55065;SDS011;40964;42.114;24.220;2022-10-16T01:51:20;7.97;;;4.53;;
55065;SDS011;40964;42.114;24.220;2022-10-16T01:53:52;10.13;;;4.10;;
55065;SDS011;40964;42.114;24.220;2022-10-16T01:56:20;6.35;;;4.20;;
55065;SDS011;40964;42.114;24.220;2022-10-16T01:58:53;8.68;;;4.72;;
55065;SDS011;40964;42.114;24.220;2022-10-16T02:01:23;6.68;;;4.60;;
55065;SDS011;40964;42.114;24.220;2022-10-16T02:03:52;10.02;;;4.55;;
55065;SDS011;40964;42.114;24.220;2022-10-16T02:06:21;8.20;;;4.88;;
55065;SDS011;40964;42.114;24.220;2022-10-16T02:08:47;8.63;;;4.93;;
55065;SDS011;40964;42.114;24.220;2022-10-16T02:11:13;8.73;;;4.75;;
55065;SDS011;40964;42.114;24.220;2022-10-16T02:13:39;6.90;;;4.55;;
55065;SDS011;40964;42.114;24.220;2022-10-16T02:16:10;9.32;;;5.10;;
55065;SDS011;40964;42.114;24.220;2022-10-16T02:18:37;6.95;;;4.50;;
55065;SDS011;40964;42.114;24.220;2022-10-16T02:24:03;25.52;;;9.77;;
55065;SDS011;40964;42.114;24.220;2022-10-16T02:26:40;9.88;;;5.55;;
55065;SDS011;40964;42.114;24.220;2022-10-16T02:29:20;7.78;;;4.90;;
55065;SDS011;40964;42.114;24.220;2022-10-16T02:31:51;13.73;;;4.68;;
55065;SDS011;40964;42.114;24.220;2022-10-16T02:34:23;9.18;;;4.70;;
55065;SDS011;40964;42.114;24.220;2022-10-16T02:36:51;9.68;;;5.07;;
55065;SDS011;40964;42.114;24.220;2022-10-16T02:39:18;8.00;;;4.80;;
55065;SDS011;40964;42.114;24.220;2022-10-16T02:41:45;10.25;;;5.25;;
55065;SDS011;40964;42.114;24.220;2022-10-16T02:44:11;10.20;;;4.75;;
55065;SDS011;40964;42.114;24.220;2022-10-16T02:46:36;9.13;;;4.78;;
55065;SDS011;40964;42.114;24.220;2022-10-16T02:49:01;8.30;;;4.88;;
55065;SDS011;40964;42.114;24.220;2022-10-16T02:51:27;10.65;;;4.93;;
55065;SDS011;40964;42.114;24.220;2022-10-16T02:53:53;9.40;;;4.97;;
55065;SDS011;40964;42.114;24.220;2022-10-16T02:56:18;8.90;;;5.35;;
55065;SDS011;40964;42.114;24.220;2022-10-16T02:58:44;8.80;;;4.82;;
55065;SDS011;40964;42.114;24.220;2022-10-16T03:01:09;8.82;;;4.68;;
55065;SDS011;40964;42.114;24.220;2022-10-16T03:03:35;7.55;;;5.05;;
55065;SDS011;40964;42.114;24.220;2022-10-16T03:06:01;10.52;;;4.57;;
55065;SDS011;40964;42.114;24.220;2022-10-16T03:08:26;8.27;;;4.50;;
55065;SDS011;40964;42.114;24.220;2022-10-16T03:10:52;7.80;;;4.43;;
55065;SDS011;40964;42.114;24.220;2022-10-16T03:13:17;8.73;;;4.63;;
55065;SDS011;40964;42.114;24.220;2022-10-16T03:15:45;7.45;;;4.30;;
55065;SDS011;40964;42.114;24.220;2022-10-16T03:18:11;9.27;;;4.53;;
55065;SDS011;40964;42.114;24.220;2022-10-16T03:20:36;10.55;;;5.25;;
55065;SDS011;40964;42.114;24.220;2022-10-16T03:23:02;9.65;;;5.60;;
55065;SDS011;40964;42.114;24.220;2022-10-16T03:25:28;12.75;;;6.43;;
55065;SDS011;40964;42.114;24.220;2022-10-16T03:27:53;12.40;;;6.47;;
55065;SDS011;40964;42.114;24.220;2022-10-16T03:30:19;13.10;;;6.22;;
55065;SDS011;40964;42.114;24.220;2022-10-16T03:32:44;8.50;;;5.45;;
55065;SDS011;40964;42.114;24.220;2022-10-16T03:35:10;10.23;;;5.85;;
55065;SDS011;40964;42.114;24.220;2022-10-16T03:37:35;11.80;;;5.32;;
55065;SDS011;40964;42.114;24.220;2022-10-16T03:40:01;11.18;;;5.55;;
55065;SDS011;40964;42.114;24.220;2022-10-16T03:42:28;7.72;;;4.85;;
55065;SDS011;40964;42.114;24.220;2022-10-16T03:44:53;8.88;;;5.10;;
55065;SDS011;40964;42.114;24.220;2022-10-16T03:47:19;8.40;;;4.50;;
55065;SDS011;40964;42.114;24.220;2022-10-16T03:49:47;8.63;;;4.80;;
55065;SDS011;40964;42.114;24.220;2022-10-16T03:52:13;10.15;;;4.95;;
55065;SDS011;40964;42.114;24.220;2022-10-16T03:54:38;7.43;;;4.80;;
55065;SDS011;40964;42.114;24.220;2022-10-16T03:57:04;10.73;;;4.68;;
55065;SDS011;40964;42.114;24.220;2022-10-16T03:59:30;9.07;;;5.28;;
55065;SDS011;40964;42.114;24.220;2022-10-16T04:01:56;18.85;;;7.85;;
55065;SDS011;40964;42.114;24.220;2022-10-16T04:04:21;13.48;;;6.90;;
55065;SDS011;40964;42.114;24.220;2022-10-16T04:06:47;18.27;;;6.88;;
55065;SDS011;40964;42.114;24.220;2022-10-16T04:09:12;9.68;;;5.95;;
55065;SDS011;40964;42.114;24.220;2022-10-16T04:11:38;9.77;;;5.63;;
55065;SDS011;40964;42.114;24.220;2022-10-16T04:14:04;10.73;;;5.57;;
55065;SDS011;40964;42.114;24.220;2022-10-16T04:16:29;13.20;;;6.05;;
55065;SDS011;40964;42.114;24.220;2022-10-16T04:18:55;9.75;;;5.47;;
55065;SDS011;40964;42.114;24.220;2022-10-16T04:21:20;11.07;;;5.22;;
55065;SDS011;40964;42.114;24.220;2022-10-16T04:23:46;9.32;;;4.78;;
55065;SDS011;40964;42.114;24.220;2022-10-16T04:26:11;8.98;;;5.03;;
55065;SDS011;40964;42.114;24.220;2022-10-16T04:28:37;8.98;;;5.10;;
55065;SDS011;40964;42.114;24.220;2022-10-16T04:31:05;12.63;;;5.57;;
55065;SDS011;40964;42.114;24.220;2022-10-16T04:33:31;9.68;;;5.25;;
55065;SDS011;40964;42.114;24.220;2022-10-16T04:35:57;11.05;;;5.05;;
55065;SDS011;40964;42.114;24.220;2022-10-16T04:38:24;7.45;;;4.65;;
55065;SDS011;40964;42.114;24.220;2022-10-16T04:40:50;8.93;;;4.63;;
55065;SDS011;40964;42.114;24.220;2022-10-16T04:43:15;9.02;;;4.80;;
55065;SDS011;40964;42.114;24.220;2022-10-16T04:45:41;7.28;;;4.47;;
55065;SDS011;40964;42.114;24.220;2022-10-16T04:48:06;12.00;;;5.07;;
55065;SDS011;40964;42.114;24.220;2022-10-16T04:50:32;8.15;;;4.95;;
55065;SDS011;40964;42.114;24.220;2022-10-16T04:52:57;10.65;;;4.82;;
55065;SDS011;40964;42.114;24.220;2022-10-16T04:55:22;15.77;;;5.70;;
55065;SDS011;40964;42.114;24.220;2022-10-16T04:57:48;8.93;;;4.53;;
55065;SDS011;40964;42.114;24.220;2022-10-16T05:00:13;11.48;;;5.63;;
55065;SDS011;40964;42.114;24.220;2022-10-16T05:02:39;8.40;;;4.78;;
55065;SDS011;40964;42.114;24.220;2022-10-16T05:05:04;9.73;;;4.68;;
55065;SDS011;40964;42.114;24.220;2022-10-16T05:07:30;11.50;;;5.10;;
55065;SDS011;40964;42.114;24.220;2022-10-16T05:09:56;9.10;;;5.13;;
55065;SDS011;40964;42.114;24.220;2022-10-16T05:12:21;9.75;;;5.53;;
55065;SDS011;40964;42.114;24.220;2022-10-16T05:14:46;11.82;;;5.35;;
55065;SDS011;40964;42.114;24.220;2022-10-16T05:17:12;13.32;;;5.95;;
55065;SDS011;40964;42.114;24.220;2022-10-16T05:19:38;14.65;;;5.30;;
55065;SDS011;40964;42.114;24.220;2022-10-16T05:22:03;10.25;;;5.30;;
55065;SDS011;40964;42.114;24.220;2022-10-16T05:24:29;11.75;;;5.95;;
55065;SDS011;40964;42.114;24.220;2022-10-16T05:26:54;9.70;;;5.82;;
55065;SDS011;40964;42.114;24.220;2022-10-16T05:29:20;13.25;;;5.93;;
55065;SDS011;40964;42.114;24.220;2022-10-16T05:31:45;24.58;;;9.98;;
55065;SDS011;40964;42.114;24.220;2022-10-16T05:34:11;18.40;;;7.78;;
55065;SDS011;40964;42.114;24.220;2022-10-16T05:36:36;16.80;;;8.02;;
55065;SDS011;40964;42.114;24.220;2022-10-16T05:39:02;14.20;;;6.25;;
55065;SDS011;40964;42.114;24.220;2022-10-16T05:41:28;10.55;;;5.45;;
55065;SDS011;40964;42.114;24.220;2022-10-16T05:43:53;10.70;;;5.82;;
55065;SDS011;40964;42.114;24.220;2022-10-16T05:46:19;12.20;;;6.35;;
55065;SDS011;40964;42.114;24.220;2022-10-16T05:48:44;9.45;;;5.70;;
55065;SDS011;40964;42.114;24.220;2022-10-16T05:51:10;11.98;;;5.95;;
55065;SDS011;40964;42.114;24.220;2022-10-16T05:53:37;11.65;;;5.82;;
55065;SDS011;40964;42.114;24.220;2022-10-16T05:56:04;12.15;;;5.85;;
55065;SDS011;40964;42.114;24.220;2022-10-16T05:58:32;10.45;;;6.20;;
55065;SDS011;40964;42.114;24.220;2022-10-16T06:01:05;10.45;;;5.78;;
55065;SDS011;40964;42.114;24.220;2022-10-16T06:03:38;15.40;;;6.40;;
55065;SDS011;40964;42.114;24.220;2022-10-16T06:06:11;9.27;;;6.03;;
55065;SDS011;40964;42.114;24.220;2022-10-16T06:08:42;10.40;;;5.78;;
55065;SDS011;40964;42.114;24.220;2022-10-16T06:11:10;11.00;;;5.63;;
55065;SDS011;40964;42.114;24.220;2022-10-16T06:13:40;12.18;;;5.75;;
55065;SDS011;40964;42.114;24.220;2022-10-16T06:16:10;9.80;;;5.90;;
55065;SDS011;40964;42.114;24.220;2022-10-16T06:18:37;9.65;;;5.75;;
55065;SDS011;40964;42.114;24.220;2022-10-16T06:21:08;10.57;;;5.93;;
55065;SDS011;40964;42.114;24.220;2022-10-16T06:23:38;11.63;;;7.25;;
55065;SDS011;40964;42.114;24.220;2022-10-16T06:26:07;14.38;;;7.47;;
55065;SDS011;40964;42.114;24.220;2022-10-16T06:28:37;15.45;;;7.80;;
55065;SDS011;40964;42.114;24.220;2022-10-16T06:31:03;13.93;;;7.30;;
55065;SDS011;40964;42.114;24.220;2022-10-16T06:33:30;14.43;;;7.32;;
55065;SDS011;40964;42.114;24.220;2022-10-16T06:38:33;11.45;;;6.55;;
55065;SDS011;40964;42.114;24.220;2022-10-16T06:40:59;11.15;;;6.55;;
55065;SDS011;40964;42.114;24.220;2022-10-16T06:43:25;11.00;;;6.68;;
55065;SDS011;40964;42.114;24.220;2022-10-16T06:45:54;13.32;;;6.55;;
55065;SDS011;40964;42.114;24.220;2022-10-16T06:48:21;11.43;;;6.43;;
55065;SDS011;40964;42.114;24.220;2022-10-16T06:53:25;14.10;;;6.55;;
55065;SDS011;40964;42.114;24.220;2022-10-16T06:55:52;14.13;;;6.65;;
55065;SDS011;40964;42.114;24.220;2022-10-16T06:58:18;13.43;;;6.25;;
55065;SDS011;40964;42.114;24.220;2022-10-16T07:00:44;12.25;;;6.05;;
55065;SDS011;40964;42.114;24.220;2022-10-16T07:03:09;12.82;;;6.60;;
55065;SDS011;40964;42.114;24.220;2022-10-16T07:05:38;19.42;;;9.43;;
55065;SDS011;40964;42.114;24.220;2022-10-16T07:08:04;19.23;;;7.78;;
55065;SDS011;40964;42.114;24.220;2022-10-16T07:10:30;11.65;;;6.95;;
55065;SDS011;40964;42.114;24.220;2022-10-16T07:12:59;10.07;;;6.13;;
55065;SDS011;40964;42.114;24.220;2022-10-16T07:15:25;15.40;;;5.80;;
55065;SDS011;40964;42.114;24.220;2022-10-16T07:17:51;10.68;;;5.90;;
55065;SDS011;40964;42.114;24.220;2022-10-16T07:20:17;10.65;;;5.28;;
55065;SDS011;40964;42.114;24.220;2022-10-16T07:22:42;11.52;;;5.53;;
55065;SDS011;40964;42.114;24.220;2022-10-16T07:25:08;11.68;;;6.05;;
55065;SDS011;40964;42.114;24.220;2022-10-16T07:27:33;13.43;;;5.45;;
55065;SDS011;40964;42.114;24.220;2022-10-16T07:29:59;10.43;;;5.75;;
55065;SDS011;40964;42.114;24.220;2022-10-16T07:32:24;12.77;;;6.20;;
55065;SDS011;40964;42.114;24.220;2022-10-16T07:34:51;8.00;;;5.40;;
55065;SDS011;40964;42.114;24.220;2022-10-16T07:37:17;7.97;;;5.22;;
55065;SDS011;40964;42.114;24.220;2022-10-16T07:39:42;13.43;;;5.60;;
55065;SDS011;40964;42.114;24.220;2022-10-16T07:42:08;13.93;;;6.00;;
55065;SDS011;40964;42.114;24.220;2022-10-16T07:44:33;10.18;;;5.53;;
55065;SDS011;40964;42.114;24.220;2022-10-16T07:46:58;9.93;;;5.68;;
55065;SDS011;40964;42.114;24.220;2022-10-16T07:49:24;10.93;;;5.60;;
55065;SDS011;40964;42.114;24.220;2022-10-16T07:51:49;8.73;;;5.75;;
55065;SDS011;40964;42.114;24.220;2022-10-16T07:54:15;8.15;;;4.82;;
55065;SDS011;40964;42.114;24.220;2022-10-16T07:56:40;8.52;;;5.75;;
55065;SDS011;40964;42.114;24.220;2022-10-16T07:59:06;10.70;;;5.50;;
55065;SDS011;40964;42.114;24.220;2022-10-16T08:01:32;11.38;;;5.00;;
55065;SDS011;40964;42.114;24.220;2022-10-16T08:03:57;11.65;;;5.80;;
55065;SDS011;40964;42.114;24.220;2022-10-16T08:06:22;9.02;;;5.55;;
55065;SDS011;40964;42.114;24.220;2022-10-16T08:08:48;10.07;;;5.43;;
55065;SDS011;40964;42.114;24.220;2022-10-16T08:11:13;10.27;;;5.28;;
55065;SDS011;40964;42.114;24.220;2022-10-16T08:13:40;7.95;;;5.78;;
55065;SDS011;40964;42.114;24.220;2022-10-16T08:16:06;10.48;;;5.68;;
55065;SDS011;40964;42.114;24.220;2022-10-16T08:18:42;9.43;;;5.72;;
55065;SDS011;40964;42.114;24.220;2022-10-16T08:21:11;13.88;;;5.53;;
55065;SDS011;40964;42.114;24.220;2022-10-16T08:23:40;8.25;;;5.57;;
55065;SDS011;40964;42.114;24.220;2022-10-16T08:26:06;10.25;;;5.45;;
55065;SDS011;40964;42.114;24.220;2022-10-16T08:28:33;9.32;;;5.53;;
55065;SDS011;40964;42.114;24.220;2022-10-16T08:31:12;9.20;;;5.88;;
55065;SDS011;40964;42.114;24.220;2022-10-16T08:33:40;10.18;;;5.50;;
55065;SDS011;40964;42.114;24.220;2022-10-16T08:36:07;11.85;;;5.10;;
55065;SDS011;40964;42.114;24.220;2022-10-16T08:38:35;11.35;;;6.05;;
55065;SDS011;40964;42.114;24.220;2022-10-16T08:46:39;9.75;;;5.25;;
55065;SDS011;40964;42.114;24.220;2022-10-16T08:49:07;11.32;;;5.53;;
55065;SDS011;40964;42.114;24.220;2022-10-16T08:51:38;11.55;;;5.13;;
55065;SDS011;40964;42.114;24.220;2022-10-16T08:56:37;13.35;;;5.93;;
55065;SDS011;40964;42.114;24.220;2022-10-16T08:59:02;7.82;;;5.00;;
55065;SDS011;40964;42.114;24.220;2022-10-16T09:01:41;7.85;;;5.45;;
55065;SDS011;40964;42.114;24.220;2022-10-16T09:06:57;8.45;;;5.78;;
55065;SDS011;40964;42.114;24.220;2022-10-16T09:19:56;9.65;;;5.63;;
55065;SDS011;40964;42.114;24.220;2022-10-16T09:22:40;8.65;;;5.57;;
55065;SDS011;40964;42.114;24.220;2022-10-16T09:25:13;7.53;;;5.57;;
55065;SDS011;40964;42.114;24.220;2022-10-16T09:27:40;8.60;;;5.45;;
55065;SDS011;40964;42.114;24.220;2022-10-16T09:30:11;8.68;;;5.68;;
55065;SDS011;40964;42.114;24.220;2022-10-16T09:32:42;8.27;;;5.25;;
55065;SDS011;40964;42.114;24.220;2022-10-16T09:35:53;8.25;;;5.03;;
55065;SDS011;40964;42.114;24.220;2022-10-16T09:38:01;8.38;;;4.88;;
55065;SDS011;40964;42.114;24.220;2022-10-16T09:40:28;8.52;;;4.97;;
55065;SDS011;40964;42.114;24.220;2022-10-16T09:43:00;7.65;;;4.72;;
55065;SDS011;40964;42.114;24.220;2022-10-16T09:45:28;10.15;;;5.57;;
55065;SDS011;40964;42.114;24.220;2022-10-16T09:47:54;13.52;;;5.65;;
55065;SDS011;40964;42.114;24.220;2022-10-16T09:50:23;7.60;;;5.00;;
55065;SDS011;40964;42.114;24.220;2022-10-16T09:52:51;9.35;;;5.07;;
55065;SDS011;40964;42.114;24.220;2022-10-16T09:55:28;11.23;;;5.47;;
55065;SDS011;40964;42.114;24.220;2022-10-16T09:57:54;8.98;;;5.70;;
55065;SDS011;40964;42.114;24.220;2022-10-16T10:00:20;11.77;;;5.53;;
55065;SDS011;40964;42.114;24.220;2022-10-16T10:02:47;11.55;;;5.68;;
55065;SDS011;40964;42.114;24.220;2022-10-16T10:05:17;13.23;;;5.82;;
55065;SDS011;40964;42.114;24.220;2022-10-16T10:08:00;8.40;;;5.60;;
55065;SDS011;40964;42.114;24.220;2022-10-16T10:10:32;12.13;;;5.93;;
55065;SDS011;40964;42.114;24.220;2022-10-16T10:13:02;12.13;;;6.30;;
55065;SDS011;40964;42.114;24.220;2022-10-16T10:15:29;10.90;;;5.65;;
55065;SDS011;40964;42.114;24.220;2022-10-16T10:17:59;9.27;;;4.82;;
55065;SDS011;40964;42.114;24.220;2022-10-16T10:20:31;11.30;;;5.72;;
55065;SDS011;40964;42.114;24.220;2022-10-16T10:22:59;8.15;;;5.07;;
55065;SDS011;40964;42.114;24.220;2022-10-16T10:25:35;9.30;;;5.55;;
55065;SDS011;40964;42.114;24.220;2022-10-16T10:28:21;10.73;;;5.05;;
55065;SDS011;40964;42.114;24.220;2022-10-16T10:31:11;8.73;;;5.13;;
55065;SDS011;40964;42.114;24.220;2022-10-16T10:33:52;6.80;;;5.15;;
55065;SDS011;40964;42.114;24.220;2022-10-16T10:36:25;7.00;;;5.28;;
55065;SDS011;40964;42.114;24.220;2022-10-16T10:38:57;6.40;;;4.60;;
55065;SDS011;40964;42.114;24.220;2022-10-16T11:08:48;10.82;;;5.18;;
55065;SDS011;40964;42.114;24.220;2022-10-16T11:11:20;7.68;;;4.43;;
55065;SDS011;40964;42.114;24.220;2022-10-16T11:13:54;7.97;;;4.20;;
55065;SDS011;40964;42.114;24.220;2022-10-16T11:16:36;7.82;;;4.47;;
55065;SDS011;40964;42.114;24.220;2022-10-16T11:27:04;5.82;;;3.58;;
55065;SDS011;40964;42.114;24.220;2022-10-16T11:29:33;5.45;;;3.60;;
55065;SDS011;40964;42.114;24.220;2022-10-16T11:32:07;5.88;;;3.85;;
55065;SDS011;40964;42.114;24.220;2022-10-16T11:34:45;4.50;;;3.45;;
55065;SDS011;40964;42.114;24.220;2022-10-16T11:39:41;4.47;;;3.58;;
55065;SDS011;40964;42.114;24.220;2022-10-16T11:50:22;6.35;;;3.42;;
55065;SDS011;40964;42.114;24.220;2022-10-16T11:55:52;6.72;;;3.45;;
55065;SDS011;40964;42.114;24.220;2022-10-16T12:03:40;6.57;;;4.07;;
55065;SDS011;40964;42.114;24.220;2022-10-16T12:08:40;3.90;;;3.42;;
55065;SDS011;40964;42.114;24.220;2022-10-16T12:11:51;3.95;;;3.40;;
55065;SDS011;40964;42.114;24.220;2022-10-16T12:13:52;4.47;;;3.60;;
55065;SDS011;40964;42.114;24.220;2022-10-16T12:17:04;4.47;;;3.65;;
55065;SDS011;40964;42.114;24.220;2022-10-16T12:19:59;5.80;;;3.28;;
55065;SDS011;40964;42.114;24.220;2022-10-16T12:22:27;4.75;;;3.55;;
55065;SDS011;40964;42.114;24.220;2022-10-16T12:24:55;7.28;;;3.63;;
55065;SDS011;40964;42.114;24.220;2022-10-16T12:27:29;4.93;;;3.47;;
55065;SDS011;40964;42.114;24.220;2022-10-16T12:30:03;7.53;;;3.75;;
55065;SDS011;40964;42.114;24.220;2022-10-16T12:32:32;5.50;;;3.65;;
55065;SDS011;40964;42.114;24.220;2022-10-16T12:35:00;6.82;;;3.45;;
55065;SDS011;40964;42.114;24.220;2022-10-16T12:37:36;4.85;;;3.53;;
55065;SDS011;40964;42.114;24.220;2022-10-16T12:40:23;5.10;;;3.55;;
55065;SDS011;40964;42.114;24.220;2022-10-16T12:42:49;4.68;;;3.17;;
55065;SDS011;40964;42.114;24.220;2022-10-16T12:47:51;5.93;;;3.28;;
55065;SDS011;40964;42.114;24.220;2022-10-16T12:50:30;7.72;;;3.20;;
55065;SDS011;40964;42.114;24.220;2022-10-16T12:52:58;5.10;;;2.85;;
55065;SDS011;40964;42.114;24.220;2022-10-16T12:55:25;4.90;;;3.10;;
55065;SDS011;40964;42.114;24.220;2022-10-16T13:00:45;5.45;;;3.60;;
55065;SDS011;40964;42.114;24.220;2022-10-16T13:03:32;5.45;;;3.42;;
55065;SDS011;40964;42.114;24.220;2022-10-16T13:06:19;5.28;;;3.25;;
55065;SDS011;40964;42.114;24.220;2022-10-16T13:09:15;3.70;;;2.88;;
55065;SDS011;40964;42.114;24.220;2022-10-16T13:17:55;5.38;;;3.40;;
55065;SDS011;40964;42.114;24.220;2022-10-16T13:23:36;6.13;;;2.88;;
55065;SDS011;40964;42.114;24.220;2022-10-16T13:28:31;5.00;;;3.20;;
55065;SDS011;40964;42.114;24.220;2022-10-16T13:30:59;4.70;;;3.17;;
55065;SDS011;40964;42.114;24.220;2022-10-16T13:33:42;5.28;;;3.17;;
55065;SDS011;40964;42.114;24.220;2022-10-16T13:36:21;5.18;;;3.28;;
55065;SDS011;40964;42.114;24.220;2022-10-16T13:38:48;4.05;;;3.25;;
55065;SDS011;40964;42.114;24.220;2022-10-16T13:41:17;5.97;;;3.67;;
55065;SDS011;40964;42.114;24.220;2022-10-16T13:43:44;5.07;;;3.08;;
55065;SDS011;40964;42.114;24.220;2022-10-16T13:46:14;19.23;;;8.23;;
55065;SDS011;40964;42.114;24.220;2022-10-16T13:48:41;11.00;;;4.53;;
55065;SDS011;40964;42.114;24.220;2022-10-16T13:51:12;6.28;;;2.88;;
55065;SDS011;40964;42.114;24.220;2022-10-16T13:53:41;5.65;;;3.15;;
55065;SDS011;40964;42.114;24.220;2022-10-16T13:56:12;5.53;;;3.42;;
55065;SDS011;40964;42.114;24.220;2022-10-16T13:58:39;5.80;;;3.70;;
55065;SDS011;40964;42.114;24.220;2022-10-16T14:01:06;5.93;;;3.25;;
55065;SDS011;40964;42.114;24.220;2022-10-16T14:03:42;4.43;;;2.90;;
55065;SDS011;40964;42.114;24.220;2022-10-16T14:06:11;3.55;;;2.70;;
55065;SDS011;40964;42.114;24.220;2022-10-16T14:08:42;5.63;;;3.42;;
55065;SDS011;40964;42.114;24.220;2022-10-16T14:11:09;5.32;;;3.00;;
55065;SDS011;40964;42.114;24.220;2022-10-16T14:13:44;7.50;;;3.30;;
55065;SDS011;40964;42.114;24.220;2022-10-16T14:16:16;4.70;;;3.45;;
55065;SDS011;40964;42.114;24.220;2022-10-16T14:18:56;9.93;;;3.83;;
55065;SDS011;40964;42.114;24.220;2022-10-16T14:21:24;7.40;;;3.15;;
55065;SDS011;40964;42.114;24.220;2022-10-16T14:23:51;5.43;;;3.03;;
55065;SDS011;40964;42.114;24.220;2022-10-16T14:26:19;4.13;;;3.20;;
55065;SDS011;40964;42.114;24.220;2022-10-16T14:28:48;6.22;;;3.40;;
55065;SDS011;40964;42.114;24.220;2022-10-16T14:33:46;6.40;;;3.45;;
55065;SDS011;40964;42.114;24.220;2022-10-16T14:36:12;4.50;;;3.60;;
55065;SDS011;40964;42.114;24.220;2022-10-16T14:38:40;4.88;;;3.47;;
55065;SDS011;40964;42.114;24.220;2022-10-16T14:41:07;4.57;;;3.15;;
55065;SDS011;40964;42.114;24.220;2022-10-16T14:43:36;3.90;;;2.97;;
55065;SDS011;40964;42.114;24.220;2022-10-16T14:46:06;4.72;;;3.13;;
55065;SDS011;40964;42.114;24.220;2022-10-16T14:48:41;9.15;;;3.08;;
55065;SDS011;40964;42.114;24.220;2022-10-16T14:51:14;4.68;;;2.90;;
55065;SDS011;40964;42.114;24.220;2022-10-16T14:53:43;4.45;;;2.90;;
55065;SDS011;40964;42.114;24.220;2022-10-16T14:56:52;6.10;;;3.33;;
55065;SDS011;40964;42.114;24.220;2022-10-16T14:59:10;6.43;;;3.08;;
55065;SDS011;40964;42.114;24.220;2022-10-16T15:01:44;4.95;;;3.25;;
55065;SDS011;40964;42.114;24.220;2022-10-16T15:04:11;5.22;;;3.30;;
55065;SDS011;40964;42.114;24.220;2022-10-16T15:06:37;4.55;;;2.83;;
55065;SDS011;40964;42.114;24.220;2022-10-16T15:09:03;5.68;;;2.80;;
55065;SDS011;40964;42.114;24.220;2022-10-16T15:11:29;5.82;;;2.72;;
55065;SDS011;40964;42.114;24.220;2022-10-16T15:13:57;4.78;;;2.67;;
55065;SDS011;40964;42.114;24.220;2022-10-16T15:16:23;3.97;;;2.65;;
55065;SDS011;40964;42.114;24.220;2022-10-16T15:18:48;3.50;;;2.60;;
55065;SDS011;40964;42.114;24.220;2022-10-16T15:21:47;3.33;;;2.50;;
55065;SDS011;40964;42.114;24.220;2022-10-16T15:24:08;3.72;;;2.63;;
55065;SDS011;40964;42.114;24.220;2022-10-16T15:26:36;5.88;;;2.92;;
55065;SDS011;40964;42.114;24.220;2022-10-16T15:29:01;5.82;;;2.50;;
55065;SDS011;40964;42.114;24.220;2022-10-16T15:31:27;3.63;;;2.30;;
55065;SDS011;40964;42.114;24.220;2022-10-16T15:33:53;5.07;;;2.55;;
55065;SDS011;40964;42.114;24.220;2022-10-16T15:36:26;7.05;;;3.05;;
55065;SDS011;40964;42.114;24.220;2022-10-16T15:38:53;3.20;;;2.55;;
55065;SDS011;40964;42.114;24.220;2022-10-16T15:41:18;11.13;;;2.80;;
55065;SDS011;40964;42.114;24.220;2022-10-16T15:43:44;2.20;;;2.00;;
55065;SDS011;40964;42.114;24.220;2022-10-16T15:46:11;3.80;;;2.50;;
55065;SDS011;40964;42.114;24.220;2022-10-16T15:48:39;4.00;;;2.60;;
55065;SDS011;40964;42.114;24.220;2022-10-16T15:51:05;4.28;;;2.30;;
55065;SDS011;40964;42.114;24.220;2022-10-16T15:53:32;4.45;;;2.58;;
55065;SDS011;40964;42.114;24.220;2022-10-16T15:56:01;3.75;;;2.13;;
55065;SDS011;40964;42.114;24.220;2022-10-16T15:58:30;3.65;;;1.90;;
55065;SDS011;40964;42.114;24.220;2022-10-16T16:00:56;5.55;;;2.95;;
55065;SDS011;40964;42.114;24.220;2022-10-16T16:03:25;4.90;;;2.50;;
55065;SDS011;40964;42.114;24.220;2022-10-16T16:05:51;4.70;;;2.53;;
55065;SDS011;40964;42.114;24.220;2022-10-16T16:08:16;5.78;;;3.10;;
55065;SDS011;40964;42.114;24.220;2022-10-16T16:10:42;7.40;;;3.65;;
55065;SDS011;40964;42.114;24.220;2022-10-16T16:13:07;9.70;;;4.80;;
55065;SDS011;40964;42.114;24.220;2022-10-16T16:15:33;15.85;;;5.65;;
55065;SDS011;40964;42.114;24.220;2022-10-16T16:17:58;9.35;;;3.78;;
55065;SDS011;40964;42.114;24.220;2022-10-16T16:20:24;6.03;;;3.38;;
55065;SDS011;40964;42.114;24.220;2022-10-16T16:22:49;3.63;;;2.58;;
55065;SDS011;40964;42.114;24.220;2022-10-16T16:25:15;3.42;;;2.22;;
55065;SDS011;40964;42.114;24.220;2022-10-16T16:27:40;4.70;;;2.50;;
55065;SDS011;40964;42.114;24.220;2022-10-16T16:30:06;7.80;;;3.28;;
55065;SDS011;40964;42.114;24.220;2022-10-16T16:32:32;3.97;;;2.80;;
55065;SDS011;40964;42.114;24.220;2022-10-16T16:34:59;4.03;;;2.88;;
55065;SDS011;40964;42.114;24.220;2022-10-16T16:37:25;5.28;;;2.42;;
55065;SDS011;40964;42.114;24.220;2022-10-16T16:39:50;3.40;;;2.20;;
55065;SDS011;40964;42.114;24.220;2022-10-16T16:42:16;3.17;;;2.42;;
55065;SDS011;40964;42.114;24.220;2022-10-16T16:44:41;3.80;;;2.83;;